sensor_id;sensor_type;location;lat;lon;timestamp;P1;durP1;ratioP1;P2;durP2;ratioP2
9322;SDS011;4700;48.822;9.270;2023-04-06T00:02:20;108.72;;;64.38;;
9322;SDS011;4700;48.822;9.270;2023-04-06T00:05:07;110.28;;;64.28;;
9322;SDS011;4700;48.822;9.270;2023-04-06T00:07:54;106.30;;;63.47;;
9322;SDS011;4700;48.822;9.270;2023-04-06T00:10:40;115.82;;;64.15;;
9322;SDS011;4700;48.822;9.270;2023-04-06T00:13:26;115.97;;;63.38;;
9322;SDS011;4700;48.822;9.270;2023-04-06T00:16:11;104.82;;;62.17;;
9322;SDS011;4700;48.822;9.270;2023-04-06T00:18:57;109.38;;;64.80;;
9322;SDS011;4700;48.822;9.270;2023-04-06T00:21:45;109.18;;;62.63;;
9322;SDS011;4700;48.822;9.270;2023-04-06T00:24:30;119.25;;;65.47;;
9322;SDS011;4700;48.822;9.270;2023-04-06T00:27:16;117.43;;;64.97;;
9322;SDS011;4700;48.822;9.270;2023-04-06T00:30:02;113.43;;;65.53;;
9322;SDS011;4700;48.822;9.270;2023-04-06T00:32:50;111.93;;;64.30;;
9322;SDS011;4700;48.822;9.270;2023-04-06T00:35:35;109.60;;;64.35;;
9322;SDS011;4700;48.822;9.270;2023-04-06T00:38:24;106.70;;;62.38;;
9322;SDS011;4700;48.822;9.270;2023-04-06T00:41:10;109.47;;;63.05;;
9322;SDS011;4700;48.822;9.270;2023-04-06T00:43:56;105.95;;;61.67;;
9322;SDS011;4700;48.822;9.270;2023-04-06T00:46:42;109.10;;;63.35;;
9322;SDS011;4700;48.822;9.270;2023-04-06T00:49:30;110.05;;;63.53;;
9322;SDS011;4700;48.822;9.270;2023-04-06T00:52:17;106.50;;;61.22;;
9322;SDS011;4700;48.822;9.270;2023-04-06T00:55:05;105.85;;;62.78;;
9322;SDS011;4700;48.822;9.270;2023-04-06T00:57:51;106.88;;;61.80;;
9322;SDS011;4700;48.822;9.270;2023-04-06T01:00:37;104.32;;;62.22;;
9322;SDS011;4700;48.822;9.270;2023-04-06T01:03:23;116.47;;;63.40;;
9322;SDS011;4700;48.822;9.270;2023-04-06T01:06:09;109.70;;;62.97;;
9322;SDS011;4700;48.822;9.270;2023-04-06T01:08:55;99.50;;;60.08;;
9322;SDS011;4700;48.822;9.270;2023-04-06T01:11:43;101.05;;;61.58;;
9322;SDS011;4700;48.822;9.270;2023-04-06T01:14:29;108.57;;;61.08;;
9322;SDS011;4700;48.822;9.270;2023-04-06T01:17:15;99.85;;;59.85;;
9322;SDS011;4700;48.822;9.270;2023-04-06T01:20:04;109.18;;;62.72;;
9322;SDS011;4700;48.822;9.270;2023-04-06T01:22:53;107.78;;;62.33;;
9322;SDS011;4700;48.822;9.270;2023-04-06T01:25:39;109.15;;;62.88;;
9322;SDS011;4700;48.822;9.270;2023-04-06T01:28:25;110.63;;;63.53;;
9322;SDS011;4700;48.822;9.270;2023-04-06T01:31:11;104.20;;;61.63;;
9322;SDS011;4700;48.822;9.270;2023-04-06T01:33:57;105.47;;;61.05;;
9322;SDS011;4700;48.822;9.270;2023-04-06T01:36:43;108.63;;;63.47;;
9322;SDS011;4700;48.822;9.270;2023-04-06T01:39:30;109.00;;;62.30;;
9322;SDS011;4700;48.822;9.270;2023-04-06T01:42:19;117.18;;;65.93;;
9322;SDS011;4700;48.822;9.270;2023-04-06T01:45:05;112.13;;;63.03;;
9322;SDS011;4700;48.822;9.270;2023-04-06T01:47:51;114.88;;;63.33;;
9322;SDS011;4700;48.822;9.270;2023-04-06T01:50:37;135.10;;;76.32;;
9322;SDS011;4700;48.822;9.270;2023-04-06T01:53:23;107.35;;;62.38;;
9322;SDS011;4700;48.822;9.270;2023-04-06T01:56:10;110.55;;;63.42;;
9322;SDS011;4700;48.822;9.270;2023-04-06T01:58:56;113.13;;;64.50;;
9322;SDS011;4700;48.822;9.270;2023-04-06T02:01:42;114.20;;;65.20;;
9322;SDS011;4700;48.822;9.270;2023-04-06T02:04:29;114.85;;;64.75;;
9322;SDS011;4700;48.822;9.270;2023-04-06T02:07:15;111.50;;;63.95;;
9322;SDS011;4700;48.822;9.270;2023-04-06T02:10:00;110.93;;;61.80;;
9322;SDS011;4700;48.822;9.270;2023-04-06T02:12:49;114.28;;;63.45;;
9322;SDS011;4700;48.822;9.270;2023-04-06T02:15:34;110.95;;;62.97;;
9322;SDS011;4700;48.822;9.270;2023-04-06T02:18:20;108.72;;;62.05;;
9322;SDS011;4700;48.822;9.270;2023-04-06T02:21:06;115.05;;;63.83;;
9322;SDS011;4700;48.822;9.270;2023-04-06T02:23:53;117.32;;;65.07;;
9322;SDS011;4700;48.822;9.270;2023-04-06T02:26:39;110.13;;;65.07;;
9322;SDS011;4700;48.822;9.270;2023-04-06T02:29:26;103.82;;;61.05;;
9322;SDS011;4700;48.822;9.270;2023-04-06T02:32:11;115.38;;;65.38;;
9322;SDS011;4700;48.822;9.270;2023-04-06T02:34:57;114.22;;;65.63;;
9322;SDS011;4700;48.822;9.270;2023-04-06T02:37:43;123.45;;;65.60;;
9322;SDS011;4700;48.822;9.270;2023-04-06T02:40:29;125.07;;;67.32;;
9322;SDS011;4700;48.822;9.270;2023-04-06T02:43:15;121.10;;;66.50;;
9322;SDS011;4700;48.822;9.270;2023-04-06T02:46:03;122.88;;;66.82;;
9322;SDS011;4700;48.822;9.270;2023-04-06T02:48:48;118.80;;;69.07;;
9322;SDS011;4700;48.822;9.270;2023-04-06T02:51:34;123.45;;;66.47;;
9322;SDS011;4700;48.822;9.270;2023-04-06T02:54:20;124.78;;;66.90;;
9322;SDS011;4700;48.822;9.270;2023-04-06T02:57:07;117.45;;;64.38;;
9322;SDS011;4700;48.822;9.270;2023-04-06T02:59:53;129.20;;;66.60;;
9322;SDS011;4700;48.822;9.270;2023-04-06T03:02:40;116.50;;;64.22;;
9322;SDS011;4700;48.822;9.270;2023-04-06T03:05:26;112.97;;;62.92;;
9322;SDS011;4700;48.822;9.270;2023-04-06T03:08:12;115.13;;;63.50;;
9322;SDS011;4700;48.822;9.270;2023-04-06T03:10:59;113.00;;;63.20;;
9322;SDS011;4700;48.822;9.270;2023-04-06T03:13:44;113.40;;;62.78;;
9322;SDS011;4700;48.822;9.270;2023-04-06T03:16:30;114.25;;;62.85;;
9322;SDS011;4700;48.822;9.270;2023-04-06T03:19:17;119.38;;;64.10;;
9322;SDS011;4700;48.822;9.270;2023-04-06T03:22:03;120.22;;;64.75;;
9322;SDS011;4700;48.822;9.270;2023-04-06T03:24:49;120.82;;;65.13;;
9322;SDS011;4700;48.822;9.270;2023-04-06T03:27:35;118.28;;;63.88;;
9322;SDS011;4700;48.822;9.270;2023-04-06T03:30:21;124.30;;;65.57;;
9322;SDS011;4700;48.822;9.270;2023-04-06T03:33:07;116.72;;;62.35;;
9322;SDS011;4700;48.822;9.270;2023-04-06T03:35:55;124.35;;;65.97;;
9322;SDS011;4700;48.822;9.270;2023-04-06T03:38:40;128.60;;;66.85;;
9322;SDS011;4700;48.822;9.270;2023-04-06T03:41:26;129.07;;;66.45;;
9322;SDS011;4700;48.822;9.270;2023-04-06T03:44:13;135.10;;;68.30;;
9322;SDS011;4700;48.822;9.270;2023-04-06T03:46:59;139.55;;;69.40;;
9322;SDS011;4700;48.822;9.270;2023-04-06T03:49:45;138.00;;;68.47;;
9322;SDS011;4700;48.822;9.270;2023-04-06T03:52:32;139.80;;;70.78;;
9322;SDS011;4700;48.822;9.270;2023-04-06T03:55:18;138.98;;;68.55;;
9322;SDS011;4700;48.822;9.270;2023-04-06T03:58:04;131.52;;;67.57;;
9322;SDS011;4700;48.822;9.270;2023-04-06T04:00:50;134.45;;;66.85;;
9322;SDS011;4700;48.822;9.270;2023-04-06T04:03:36;136.57;;;70.60;;
9322;SDS011;4700;48.822;9.270;2023-04-06T04:06:22;133.25;;;67.47;;
9322;SDS011;4700;48.822;9.270;2023-04-06T04:09:10;129.85;;;68.70;;
9322;SDS011;4700;48.822;9.270;2023-04-06T04:11:56;130.98;;;66.63;;
9322;SDS011;4700;48.822;9.270;2023-04-06T04:14:42;123.88;;;65.03;;
9322;SDS011;4700;48.822;9.270;2023-04-06T04:17:28;134.70;;;69.90;;
9322;SDS011;4700;48.822;9.270;2023-04-06T04:20:14;136.38;;;69.05;;
9322;SDS011;4700;48.822;9.270;2023-04-06T04:23:01;136.27;;;68.45;;
9322;SDS011;4700;48.822;9.270;2023-04-06T04:25:48;141.18;;;70.80;;
9322;SDS011;4700;48.822;9.270;2023-04-06T04:28:35;141.70;;;70.60;;
9322;SDS011;4700;48.822;9.270;2023-04-06T04:31:23;140.70;;;70.60;;
9322;SDS011;4700;48.822;9.270;2023-04-06T04:34:09;141.68;;;70.55;;
9322;SDS011;4700;48.822;9.270;2023-04-06T04:36:55;142.57;;;72.63;;
9322;SDS011;4700;48.822;9.270;2023-04-06T04:39:43;138.07;;;70.35;;
9322;SDS011;4700;48.822;9.270;2023-04-06T04:42:31;141.63;;;71.03;;
9322;SDS011;4700;48.822;9.270;2023-04-06T04:45:17;135.50;;;71.13;;
9322;SDS011;4700;48.822;9.270;2023-04-06T04:48:03;131.05;;;68.15;;
9322;SDS011;4700;48.822;9.270;2023-04-06T04:50:51;150.80;;;79.13;;
9322;SDS011;4700;48.822;9.270;2023-04-06T04:53:32;130.40;;;67.43;;
9322;SDS011;4700;48.822;9.270;2023-04-06T04:56:18;126.15;;;66.68;;
9322;SDS011;4700;48.822;9.270;2023-04-06T04:59:07;137.05;;;72.43;;
9322;SDS011;4700;48.822;9.270;2023-04-06T05:01:53;140.15;;;77.07;;
9322;SDS011;4700;48.822;9.270;2023-04-06T05:04:43;129.88;;;68.78;;
9322;SDS011;4700;48.822;9.270;2023-04-06T05:07:29;127.28;;;66.43;;
9322;SDS011;4700;48.822;9.270;2023-04-06T05:10:15;129.18;;;68.18;;
9322;SDS011;4700;48.822;9.270;2023-04-06T05:13:01;137.98;;;71.65;;
9322;SDS011;4700;48.822;9.270;2023-04-06T05:15:48;135.40;;;72.88;;
9322;SDS011;4700;48.822;9.270;2023-04-06T05:18:34;127.22;;;67.47;;
9322;SDS011;4700;48.822;9.270;2023-04-06T05:21:20;125.07;;;66.20;;
9322;SDS011;4700;48.822;9.270;2023-04-06T05:24:06;145.10;;;76.03;;
9322;SDS011;4700;48.822;9.270;2023-04-06T05:26:55;128.68;;;68.00;;
9322;SDS011;4700;48.822;9.270;2023-04-06T05:29:41;139.90;;;71.85;;
9322;SDS011;4700;48.822;9.270;2023-04-06T05:32:28;152.10;;;76.35;;
9322;SDS011;4700;48.822;9.270;2023-04-06T05:35:15;165.30;;;81.15;;
9322;SDS011;4700;48.822;9.270;2023-04-06T05:38:01;170.05;;;86.57;;
9322;SDS011;4700;48.822;9.270;2023-04-06T05:40:47;172.65;;;85.80;;
9322;SDS011;4700;48.822;9.270;2023-04-06T05:43:33;177.70;;;88.00;;
9322;SDS011;4700;48.822;9.270;2023-04-06T05:46:19;192.05;;;89.68;;
9322;SDS011;4700;48.822;9.270;2023-04-06T05:49:07;198.23;;;95.97;;
9322;SDS011;4700;48.822;9.270;2023-04-06T05:51:56;196.52;;;94.78;;
9322;SDS011;4700;48.822;9.270;2023-04-06T05:54:42;207.27;;;103.10;;
9322;SDS011;4700;48.822;9.270;2023-04-06T05:57:28;200.35;;;94.68;;
9322;SDS011;4700;48.822;9.270;2023-04-06T06:00:14;204.40;;;96.68;;
9322;SDS011;4700;48.822;9.270;2023-04-06T06:03:01;224.85;;;101.93;;
9322;SDS011;4700;48.822;9.270;2023-04-06T06:05:51;205.52;;;95.70;;
9322;SDS011;4700;48.822;9.270;2023-04-06T06:08:36;205.10;;;99.25;;
9322;SDS011;4700;48.822;9.270;2023-04-06T06:11:25;215.65;;;103.10;;
9322;SDS011;4700;48.822;9.270;2023-04-06T06:14:11;215.70;;;105.60;;
9322;SDS011;4700;48.822;9.270;2023-04-06T06:16:57;220.43;;;112.32;;
9322;SDS011;4700;48.822;9.270;2023-04-06T06:19:43;211.48;;;103.00;;
9322;SDS011;4700;48.822;9.270;2023-04-06T06:22:31;228.07;;;114.53;;
9322;SDS011;4700;48.822;9.270;2023-04-06T06:25:16;245.80;;;128.77;;
9322;SDS011;4700;48.822;9.270;2023-04-06T06:28:03;251.63;;;135.20;;
9322;SDS011;4700;48.822;9.270;2023-04-06T06:30:49;249.20;;;127.93;;
9322;SDS011;4700;48.822;9.270;2023-04-06T06:33:35;233.88;;;116.80;;
9322;SDS011;4700;48.822;9.270;2023-04-06T06:36:25;258.88;;;125.70;;
9322;SDS011;4700;48.822;9.270;2023-04-06T06:39:13;267.42;;;132.43;;
9322;SDS011;4700;48.822;9.270;2023-04-06T06:41:59;247.20;;;117.25;;
9322;SDS011;4700;48.822;9.270;2023-04-06T06:44:45;242.90;;;107.10;;
9322;SDS011;4700;48.822;9.270;2023-04-06T06:47:31;229.13;;;108.10;;
9322;SDS011;4700;48.822;9.270;2023-04-06T06:50:17;238.73;;;109.43;;
9322;SDS011;4700;48.822;9.270;2023-04-06T06:53:03;208.98;;;91.07;;
9322;SDS011;4700;48.822;9.270;2023-04-06T06:55:51;186.07;;;88.65;;
9322;SDS011;4700;48.822;9.270;2023-04-06T06:58:36;160.40;;;83.35;;
9322;SDS011;4700;48.822;9.270;2023-04-06T07:01:22;139.07;;;77.97;;
9322;SDS011;4700;48.822;9.270;2023-04-06T07:04:11;142.80;;;79.07;;
9322;SDS011;4700;48.822;9.270;2023-04-06T07:06:57;131.53;;;81.93;;
9322;SDS011;4700;48.822;9.270;2023-04-06T07:09:43;135.03;;;92.93;;
9322;SDS011;4700;48.822;9.270;2023-04-06T07:12:30;143.57;;;119.40;;
9322;SDS011;4700;48.822;9.270;2023-04-06T07:15:16;147.17;;;131.50;;
9322;SDS011;4700;48.822;9.270;2023-04-06T07:18:02;117.57;;;105.83;;
9322;SDS011;4700;48.822;9.270;2023-04-06T07:20:48;125.80;;;112.17;;
9322;SDS011;4700;48.822;9.270;2023-04-06T07:23:34;121.83;;;106.37;;
9322;SDS011;4700;48.822;9.270;2023-04-06T07:26:20;67.53;;;62.63;;
9322;SDS011;4700;48.822;9.270;2023-04-06T07:29:07;73.07;;;63.53;;
9322;SDS011;4700;48.822;9.270;2023-04-06T07:31:53;55.07;;;50.87;;
9322;SDS011;4700;48.822;9.270;2023-04-06T07:34:41;58.47;;;53.67;;
9322;SDS011;4700;48.822;9.270;2023-04-06T07:37:28;53.73;;;49.03;;
9322;SDS011;4700;48.822;9.270;2023-04-06T07:40:14;41.40;;;37.63;;
9322;SDS011;4700;48.822;9.270;2023-04-06T07:43:01;54.37;;;49.43;;
9322;SDS011;4700;48.822;9.270;2023-04-06T07:45:48;57.00;;;52.43;;
9322;SDS011;4700;48.822;9.270;2023-04-06T07:48:34;54.30;;;49.70;;
9322;SDS011;4700;48.822;9.270;2023-04-06T07:51:21;63.47;;;57.23;;
9322;SDS011;4700;48.822;9.270;2023-04-06T07:54:09;61.23;;;56.13;;
9322;SDS011;4700;48.822;9.270;2023-04-06T07:56:55;59.40;;;54.00;;
9322;SDS011;4700;48.822;9.270;2023-04-06T07:59:44;75.77;;;66.57;;
9322;SDS011;4700;48.822;9.270;2023-04-06T08:02:32;70.47;;;64.13;;
9322;SDS011;4700;48.822;9.270;2023-04-06T08:05:18;60.93;;;55.10;;
9322;SDS011;4700;48.822;9.270;2023-04-06T08:08:04;54.30;;;48.83;;
9322;SDS011;4700;48.822;9.270;2023-04-06T08:10:53;65.30;;;59.20;;
9322;SDS011;4700;48.822;9.270;2023-04-06T08:13:40;49.13;;;45.23;;
9322;SDS011;4700;48.822;9.270;2023-04-06T08:16:26;53.90;;;49.53;;
9322;SDS011;4700;48.822;9.270;2023-04-06T08:19:14;66.53;;;59.57;;
9322;SDS011;4700;48.822;9.270;2023-04-06T08:22:01;69.67;;;61.50;;
9322;SDS011;4700;48.822;9.270;2023-04-06T08:24:47;51.30;;;47.20;;
9322;SDS011;4700;48.822;9.270;2023-04-06T08:27:33;60.27;;;46.53;;
9322;SDS011;4700;48.822;9.270;2023-04-06T08:30:19;84.33;;;60.47;;
9322;SDS011;4700;48.822;9.270;2023-04-06T08:33:05;59.30;;;52.57;;
9322;SDS011;4700;48.822;9.270;2023-04-06T08:35:53;54.60;;;48.80;;
9322;SDS011;4700;48.822;9.270;2023-04-06T08:38:41;34.83;;;31.60;;
9322;SDS011;4700;48.822;9.270;2023-04-06T08:41:27;50.77;;;45.93;;
9322;SDS011;4700;48.822;9.270;2023-04-06T08:44:13;36.10;;;29.87;;
9322;SDS011;4700;48.822;9.270;2023-04-06T08:46:59;40.00;;;36.20;;
9322;SDS011;4700;48.822;9.270;2023-04-06T08:49:46;56.83;;;51.30;;
9322;SDS011;4700;48.822;9.270;2023-04-06T08:52:35;44.70;;;40.07;;
9322;SDS011;4700;48.822;9.270;2023-04-06T08:55:25;53.57;;;48.17;;
9322;SDS011;4700;48.822;9.270;2023-04-06T08:58:11;53.03;;;47.97;;
9322;SDS011;4700;48.822;9.270;2023-04-06T09:00:57;56.10;;;49.47;;
9322;SDS011;4700;48.822;9.270;2023-04-06T09:03:44;59.07;;;42.87;;
9322;SDS011;4700;48.822;9.270;2023-04-06T09:06:33;63.63;;;58.50;;
9322;SDS011;4700;48.822;9.270;2023-04-06T09:09:22;91.00;;;84.20;;
9322;SDS011;4700;48.822;9.270;2023-04-06T09:12:08;129.37;;;120.40;;
9322;SDS011;4700;48.822;9.270;2023-04-06T09:14:56;126.97;;;117.20;;
9322;SDS011;4700;48.822;9.270;2023-04-06T09:17:43;97.90;;;90.90;;
9322;SDS011;4700;48.822;9.270;2023-04-06T09:20:30;101.17;;;92.93;;
9322;SDS011;4700;48.822;9.270;2023-04-06T09:23:19;70.60;;;64.87;;
9322;SDS011;4700;48.822;9.270;2023-04-06T09:26:08;48.33;;;44.03;;
9322;SDS011;4700;48.822;9.270;2023-04-06T09:28:55;47.37;;;42.27;;
9322;SDS011;4700;48.822;9.270;2023-04-06T09:31:41;62.00;;;42.17;;
9322;SDS011;4700;48.822;9.270;2023-04-06T09:34:27;72.10;;;41.70;;
9322;SDS011;4700;48.822;9.270;2023-04-06T09:37:14;61.53;;;50.33;;
9322;SDS011;4700;48.822;9.270;2023-04-06T09:40:02;35.13;;;28.67;;
9322;SDS011;4700;48.822;9.270;2023-04-06T09:42:50;38.57;;;34.80;;
9322;SDS011;4700;48.822;9.270;2023-04-06T09:45:38;53.07;;;36.37;;
9322;SDS011;4700;48.822;9.270;2023-04-06T09:48:24;49.23;;;44.40;;
9322;SDS011;4700;48.822;9.270;2023-04-06T09:51:14;38.27;;;33.67;;
9322;SDS011;4700;48.822;9.270;2023-04-06T09:54:03;43.67;;;34.80;;
9322;SDS011;4700;48.822;9.270;2023-04-06T09:56:51;35.00;;;30.47;;
9322;SDS011;4700;48.822;9.270;2023-04-06T09:59:55;46.20;;;41.93;;
9322;SDS011;4700;48.822;9.270;2023-04-06T10:02:53;38.20;;;34.33;;
9322;SDS011;4700;48.822;9.270;2023-04-06T10:05:46;41.77;;;37.20;;
9322;SDS011;4700;48.822;9.270;2023-04-06T10:08:36;55.80;;;47.57;;
9322;SDS011;4700;48.822;9.270;2023-04-06T10:11:25;40.97;;;32.53;;
9322;SDS011;4700;48.822;9.270;2023-04-06T10:14:11;34.70;;;30.60;;
9322;SDS011;4700;48.822;9.270;2023-04-06T10:16:59;39.80;;;36.10;;
9322;SDS011;4700;48.822;9.270;2023-04-06T10:19:46;58.83;;;52.33;;
9322;SDS011;4700;48.822;9.270;2023-04-06T10:22:39;49.93;;;43.57;;
9322;SDS011;4700;48.822;9.270;2023-04-06T10:25:34;49.70;;;44.70;;
9322;SDS011;4700;48.822;9.270;2023-04-06T10:28:21;65.63;;;58.57;;
9322;SDS011;4700;48.822;9.270;2023-04-06T10:31:07;72.40;;;62.87;;
9322;SDS011;4700;48.822;9.270;2023-04-06T10:33:55;78.20;;;70.57;;
9322;SDS011;4700;48.822;9.270;2023-04-06T10:36:42;59.53;;;53.70;;
9322;SDS011;4700;48.822;9.270;2023-04-06T10:39:30;58.80;;;52.97;;
9322;SDS011;4700;48.822;9.270;2023-04-06T10:42:16;52.93;;;48.60;;
9322;SDS011;4700;48.822;9.270;2023-04-06T10:45:04;90.07;;;80.60;;
9322;SDS011;4700;48.822;9.270;2023-04-06T10:47:52;58.10;;;53.27;;
9322;SDS011;4700;48.822;9.270;2023-04-06T10:50:39;78.90;;;71.57;;
9322;SDS011;4700;48.822;9.270;2023-04-06T10:53:28;91.43;;;82.97;;
9322;SDS011;4700;48.822;9.270;2023-04-06T10:56:15;85.53;;;77.83;;
9322;SDS011;4700;48.822;9.270;2023-04-06T10:59:01;115.83;;;104.30;;
9322;SDS011;4700;48.822;9.270;2023-04-06T11:01:48;101.13;;;91.37;;
9322;SDS011;4700;48.822;9.270;2023-04-06T11:04:34;122.67;;;109.93;;
9322;SDS011;4700;48.822;9.270;2023-04-06T11:07:23;111.13;;;99.80;;
9322;SDS011;4700;48.822;9.270;2023-04-06T11:10:10;114.60;;;102.30;;
9322;SDS011;4700;48.822;9.270;2023-04-06T11:12:56;124.60;;;109.77;;
9322;SDS011;4700;48.822;9.270;2023-04-06T11:15:42;122.37;;;108.63;;
9322;SDS011;4700;48.822;9.270;2023-04-06T11:18:28;136.60;;;116.27;;
9322;SDS011;4700;48.822;9.270;2023-04-06T11:21:14;138.40;;;112.03;;
9322;SDS011;4700;48.822;9.270;2023-04-06T11:24:05;141.60;;;116.73;;
9322;SDS011;4700;48.822;9.270;2023-04-06T11:26:55;147.33;;;116.93;;
9322;SDS011;4700;48.822;9.270;2023-04-06T11:29:42;149.40;;;112.23;;
9322;SDS011;4700;48.822;9.270;2023-04-06T11:32:30;131.43;;;108.60;;
9322;SDS011;4700;48.822;9.270;2023-04-06T11:35:25;139.50;;;112.57;;
9322;SDS011;4700;48.822;9.270;2023-04-06T11:38:11;157.03;;;127.60;;
9322;SDS011;4700;48.822;9.270;2023-04-06T11:40:59;141.27;;;119.30;;
9322;SDS011;4700;48.822;9.270;2023-04-06T11:43:47;142.40;;;115.23;;
9322;SDS011;4700;48.822;9.270;2023-04-06T11:46:33;152.87;;;127.53;;
9322;SDS011;4700;48.822;9.270;2023-04-06T11:49:19;151.53;;;119.63;;
9322;SDS011;4700;48.822;9.270;2023-04-06T11:52:14;167.07;;;131.83;;
9322;SDS011;4700;48.822;9.270;2023-04-06T11:54:58;142.93;;;113.53;;
9322;SDS011;4700;48.822;9.270;2023-04-06T11:57:56;146.43;;;112.53;;
9322;SDS011;4700;48.822;9.270;2023-04-06T12:00:42;154.57;;;114.33;;
9322;SDS011;4700;48.822;9.270;2023-04-06T12:03:30;157.57;;;107.00;;
9322;SDS011;4700;48.822;9.270;2023-04-06T12:06:16;161.67;;;117.93;;
9322;SDS011;4700;48.822;9.270;2023-04-06T12:09:03;163.67;;;125.03;;
9322;SDS011;4700;48.822;9.270;2023-04-06T12:11:49;153.63;;;115.60;;
9322;SDS011;4700;48.822;9.270;2023-04-06T12:14:36;186.37;;;137.03;;
9322;SDS011;4700;48.822;9.270;2023-04-06T12:17:22;178.30;;;135.07;;
9322;SDS011;4700;48.822;9.270;2023-04-06T12:20:09;145.77;;;115.83;;
9322;SDS011;4700;48.822;9.270;2023-04-06T12:22:58;149.53;;;121.93;;
9322;SDS011;4700;48.822;9.270;2023-04-06T12:25:44;154.33;;;124.57;;
9322;SDS011;4700;48.822;9.270;2023-04-06T12:28:30;165.30;;;130.70;;
9322;SDS011;4700;48.822;9.270;2023-04-06T12:31:18;156.57;;;131.57;;
9322;SDS011;4700;48.822;9.270;2023-04-06T12:34:05;152.10;;;123.80;;
9322;SDS011;4700;48.822;9.270;2023-04-06T12:36:51;159.23;;;134.83;;
9322;SDS011;4700;48.822;9.270;2023-04-06T12:39:37;151.63;;;118.57;;
9322;SDS011;4700;48.822;9.270;2023-04-06T12:42:22;163.37;;;134.93;;
9322;SDS011;4700;48.822;9.270;2023-04-06T12:45:09;157.30;;;130.87;;
9322;SDS011;4700;48.822;9.270;2023-04-06T12:47:56;159.77;;;135.03;;
9322;SDS011;4700;48.822;9.270;2023-04-06T12:50:43;147.13;;;124.97;;
9322;SDS011;4700;48.822;9.270;2023-04-06T12:53:29;167.07;;;128.80;;
9322;SDS011;4700;48.822;9.270;2023-04-06T12:56:16;151.63;;;127.97;;
9322;SDS011;4700;48.822;9.270;2023-04-06T12:59:02;138.70;;;124.27;;
9322;SDS011;4700;48.822;9.270;2023-04-06T13:01:49;139.97;;;124.60;;
9322;SDS011;4700;48.822;9.270;2023-04-06T13:04:37;147.07;;;129.63;;
9322;SDS011;4700;48.822;9.270;2023-04-06T13:07:23;126.07;;;112.20;;
9322;SDS011;4700;48.822;9.270;2023-04-06T13:10:09;133.07;;;117.23;;
9322;SDS011;4700;48.822;9.270;2023-04-06T13:12:55;125.67;;;111.40;;
9322;SDS011;4700;48.822;9.270;2023-04-06T13:15:41;138.67;;;123.13;;
9322;SDS011;4700;48.822;9.270;2023-04-06T13:18:27;135.80;;;121.10;;
9322;SDS011;4700;48.822;9.270;2023-04-06T13:21:14;178.27;;;128.73;;
9322;SDS011;4700;48.822;9.270;2023-04-06T13:24:00;137.87;;;123.47;;
9322;SDS011;4700;48.822;9.270;2023-04-06T13:26:47;107.73;;;97.23;;
9322;SDS011;4700;48.822;9.270;2023-04-06T13:29:32;93.37;;;85.00;;
9322;SDS011;4700;48.822;9.270;2023-04-06T13:32:19;114.83;;;103.63;;
9322;SDS011;4700;48.822;9.270;2023-04-06T13:35:06;111.30;;;100.40;;
9322;SDS011;4700;48.822;9.270;2023-04-06T13:37:53;113.20;;;102.37;;
9322;SDS011;4700;48.822;9.270;2023-04-06T13:40:39;104.03;;;94.07;;
9322;SDS011;4700;48.822;9.270;2023-04-06T13:43:25;83.00;;;75.77;;
9322;SDS011;4700;48.822;9.270;2023-04-06T13:46:11;95.03;;;86.43;;
9322;SDS011;4700;48.822;9.270;2023-04-06T13:48:57;123.23;;;96.57;;
9322;SDS011;4700;48.822;9.270;2023-04-06T13:51:43;107.33;;;96.70;;
9322;SDS011;4700;48.822;9.270;2023-04-06T13:54:30;106.37;;;97.00;;
9322;SDS011;4700;48.822;9.270;2023-04-06T13:57:16;106.37;;;97.83;;
9322;SDS011;4700;48.822;9.270;2023-04-06T14:00:02;109.30;;;98.77;;
9322;SDS011;4700;48.822;9.270;2023-04-06T14:02:48;95.83;;;86.50;;
9322;SDS011;4700;48.822;9.270;2023-04-06T14:05:34;90.83;;;82.87;;
9322;SDS011;4700;48.822;9.270;2023-04-06T14:08:20;80.40;;;74.00;;
9322;SDS011;4700;48.822;9.270;2023-04-06T14:11:10;83.50;;;77.23;;
9322;SDS011;4700;48.822;9.270;2023-04-06T14:13:56;90.00;;;82.33;;
9322;SDS011;4700;48.822;9.270;2023-04-06T14:16:42;107.07;;;98.60;;
9322;SDS011;4700;48.822;9.270;2023-04-06T14:19:28;76.20;;;69.67;;
9322;SDS011;4700;48.822;9.270;2023-04-06T14:22:16;56.80;;;52.57;;
9322;SDS011;4700;48.822;9.270;2023-04-06T14:25:02;88.27;;;80.40;;
9322;SDS011;4700;48.822;9.270;2023-04-06T14:27:50;98.87;;;89.33;;
9322;SDS011;4700;48.822;9.270;2023-04-06T14:30:35;63.90;;;59.40;;
9322;SDS011;4700;48.822;9.270;2023-04-06T14:33:21;95.57;;;86.10;;
9322;SDS011;4700;48.822;9.270;2023-04-06T14:36:07;44.37;;;41.10;;
9322;SDS011;4700;48.822;9.270;2023-04-06T14:38:53;44.23;;;40.10;;
9322;SDS011;4700;48.822;9.270;2023-04-06T14:41:39;83.27;;;57.17;;
9322;SDS011;4700;48.822;9.270;2023-04-06T14:44:26;43.17;;;39.03;;
9322;SDS011;4700;48.822;9.270;2023-04-06T14:47:14;33.97;;;31.00;;
9322;SDS011;4700;48.822;9.270;2023-04-06T14:50:04;34.33;;;30.60;;
9322;SDS011;4700;48.822;9.270;2023-04-06T14:52:50;42.60;;;38.77;;
9322;SDS011;4700;48.822;9.270;2023-04-06T14:55:31;48.53;;;44.17;;
9322;SDS011;4700;48.822;9.270;2023-04-06T14:58:17;83.63;;;76.87;;
9322;SDS011;4700;48.822;9.270;2023-04-06T15:01:05;106.07;;;96.17;;
9322;SDS011;4700;48.822;9.270;2023-04-06T15:03:52;110.00;;;99.83;;
9322;SDS011;4700;48.822;9.270;2023-04-06T15:06:38;115.40;;;105.13;;
9322;SDS011;4700;48.822;9.270;2023-04-06T15:09:24;104.90;;;95.67;;
9322;SDS011;4700;48.822;9.270;2023-04-06T15:12:09;121.43;;;109.93;;
9322;SDS011;4700;48.822;9.270;2023-04-06T15:14:55;128.50;;;116.20;;
9322;SDS011;4700;48.822;9.270;2023-04-06T15:17:42;128.60;;;115.87;;
9322;SDS011;4700;48.822;9.270;2023-04-06T15:20:28;129.53;;;116.60;;
9322;SDS011;4700;48.822;9.270;2023-04-06T15:23:14;134.47;;;120.83;;
9322;SDS011;4700;48.822;9.270;2023-04-06T15:26:00;152.43;;;135.93;;
9322;SDS011;4700;48.822;9.270;2023-04-06T15:28:46;156.37;;;139.33;;
9322;SDS011;4700;48.822;9.270;2023-04-06T15:31:32;152.33;;;134.80;;
9322;SDS011;4700;48.822;9.270;2023-04-06T15:34:19;151.80;;;134.90;;
9322;SDS011;4700;48.822;9.270;2023-04-06T15:37:05;155.43;;;139.00;;
9322;SDS011;4700;48.822;9.270;2023-04-06T15:39:52;135.00;;;121.83;;
9322;SDS011;4700;48.822;9.270;2023-04-06T15:42:38;142.47;;;127.57;;
9322;SDS011;4700;48.822;9.270;2023-04-06T15:45:25;149.17;;;133.17;;
9322;SDS011;4700;48.822;9.270;2023-04-06T15:48:11;150.60;;;134.23;;
9322;SDS011;4700;48.822;9.270;2023-04-06T15:50:58;152.07;;;134.77;;
9322;SDS011;4700;48.822;9.270;2023-04-06T15:53:45;171.60;;;148.63;;
9322;SDS011;4700;48.822;9.270;2023-04-06T15:56:31;150.50;;;130.63;;
9322;SDS011;4700;48.822;9.270;2023-04-06T15:59:16;162.03;;;135.53;;
9322;SDS011;4700;48.822;9.270;2023-04-06T16:02:02;155.03;;;132.77;;
9322;SDS011;4700;48.822;9.270;2023-04-06T16:04:48;159.30;;;133.10;;
9322;SDS011;4700;48.822;9.270;2023-04-06T16:07:39;172.60;;;143.20;;
9322;SDS011;4700;48.822;9.270;2023-04-06T16:10:26;160.60;;;133.37;;
9322;SDS011;4700;48.822;9.270;2023-04-06T16:13:11;189.10;;;166.27;;
9322;SDS011;4700;48.822;9.270;2023-04-06T16:16:00;170.53;;;134.87;;
9322;SDS011;4700;48.822;9.270;2023-04-06T16:18:46;174.63;;;135.17;;
9322;SDS011;4700;48.822;9.270;2023-04-06T16:21:32;185.93;;;137.50;;
9322;SDS011;4700;48.822;9.270;2023-04-06T16:24:19;170.63;;;132.73;;
9322;SDS011;4700;48.822;9.270;2023-04-06T16:27:06;185.77;;;140.53;;
9322;SDS011;4700;48.822;9.270;2023-04-06T16:29:51;165.07;;;128.90;;